Time,TemperatureF,DewpointF,PressureIn,WindDirection,WindDirectionDegrees,WindSpeedMPH,WindSpeedGustMPH,Humidity,HourlyPrecipIn,Conditions,Clouds,dailyrainin,SolarRadiationWatts/m^2,SoftwareType,DateUTC
2013-01-08 00:02:00,42.0,32.0,29.86,ESE,104,3.0,7.0,66,-99.99,,,-99.99,0.000000,,2013-01-08 07:02:00,
2013-01-08 00:12:00,41.0,32.0,29.86,SE,141,3.0,5.0,68,-99.99,,,-99.99,0.000000,,2013-01-08 07:12:00,
2013-01-08 00:22:00,41.0,32.0,29.86,SE,141,3.0,5.0,68,-99.99,,,-99.99,0.000000,,2013-01-08 07:22:00,
2013-01-08 00:32:00,38.0,32.0,29.86,SE,144,6.0,11.0,77,-99.99,,,-99.99,0.000000,,2013-01-08 07:32:00,
2013-01-08 00:42:00,38.0,30.0,29.86,SE,137,6.0,9.0,73,-99.99,,,-99.99,0.000000,,2013-01-08 07:42:00,
2013-01-08 00:52:00,39.0,30.0,29.86,East,98,5.0,7.0,68,-99.99,,,-99.99,0.000000,,2013-01-08 07:52:00,
2013-01-08 01:02:00,39.0,30.0,29.86,East,98,5.0,7.0,68,-99.99,,,-99.99,0.000000,,2013-01-08 08:02:00,
2013-01-08 01:12:00,39.0,31.0,29.85,WNW,303,9.0,14.0,72,-99.99,,,-99.99,0.000000,,2013-01-08 08:12:00,
2013-01-08 01:22:00,39.0,31.0,29.85,WNW,303,9.0,14.0,72,-99.99,,,-99.99,0.000000,,2013-01-08 08:22:00,
2013-01-08 01:32:00,39.0,31.0,29.83,WNW,294,11.0,13.0,72,-99.99,,,-99.99,0.000000,,2013-01-08 08:32:00,
2013-01-08 01:42:00,41.0,31.0,29.83,WNW,294,7.0,12.0,64,-99.99,,,-99.99,0.000000,,2013-01-08 08:42:00,
2013-01-08 01:53:00,41.0,31.0,29.83,WNW,294,7.0,12.0,64,-99.99,,,-99.99,0.000000,,2013-01-08 08:53:00,
2013-01-08 02:02:00,39.0,31.0,29.85,SE,125,7.0,11.0,71,-99.99,,,-99.99,0.000000,,2013-01-08 09:02:00,
2013-01-08 02:12:00,37.0,30.0,29.85,South,176,4.0,7.0,76,-99.99,,,-99.99,0.000000,,2013-01-08 09:12:00,
2013-01-08 02:22:00,37.0,30.0,29.85,South,176,4.0,7.0,76,-99.99,,,-99.99,0.000000,,2013-01-08 09:22:00,
2013-01-08 02:32:00,37.0,30.0,29.85,WNW,300,4.0,8.0,74,-99.99,,,-99.99,0.000000,,2013-01-08 09:32:00,
2013-01-08 02:42:00,38.0,31.0,29.85,West,281,9.0,13.0,76,-99.99,,,-99.99,0.000000,,2013-01-08 09:42:00,
2013-01-08 02:52:00,38.0,31.0,29.85,West,281,9.0,13.0,76,-99.99,,,-99.99,0.000000,,2013-01-08 09:52:00,
2013-01-08 03:02:00,39.0,31.0,29.85,West,278,7.0,11.0,70,-99.99,,,-99.99,0.000000,,2013-01-08 10:02:00,
2013-01-08 03:12:00,40.0,30.0,29.84,West,270,6.0,9.0,66,-99.99,,,-99.99,0.000000,,2013-01-08 10:12:00,
2013-01-08 03:22:00,40.0,30.0,29.84,West,270,6.0,9.0,66,-99.99,,,-99.99,0.000000,,2013-01-08 10:22:00,
2013-01-08 03:32:00,40.0,29.0,29.84,West,262,5.0,7.0,64,-99.99,,,-99.99,0.000000,,2013-01-08 10:32:00,
2013-01-08 03:42:00,40.0,29.0,29.84,SW,230,3.0,6.0,66,-99.99,,,-99.99,0.000000,,2013-01-08 10:42:00,
2013-01-08 03:52:00,40.0,29.0,29.84,SW,230,3.0,6.0,66,-99.99,,,-99.99,0.000000,,2013-01-08 10:52:00,
2013-01-08 04:02:00,38.0,30.0,29.84,North,7,4.0,6.0,73,-99.99,,,-99.99,0.000000,,2013-01-08 11:02:00,
2013-01-08 04:12:00,35.0,30.0,29.84,WNW,287,5.0,7.0,81,-99.99,,,-99.99,0.000000,,2013-01-08 11:12:00,
2013-01-08 04:22:00,35.0,30.0,29.84,WNW,287,5.0,7.0,81,-99.99,,,-99.99,0.000000,,2013-01-08 11:22:00,
2013-01-08 04:32:00,33.0,29.0,29.84,West,279,5.0,7.0,84,-99.99,,,-99.99,0.000000,,2013-01-08 11:32:00,
2013-01-08 04:42:00,33.0,29.0,29.83,West,268,4.0,6.0,84,-99.99,,,-99.99,0.000000,,2013-01-08 11:42:00,
2013-01-08 04:53:00,33.0,29.0,29.83,West,268,4.0,6.0,84,-99.99,,,-99.99,0.000000,,2013-01-08 11:53:00,
2013-01-08 05:02:00,34.0,29.0,29.83,WNW,289,5.0,7.0,83,-99.99,,,-99.99,0.000000,,2013-01-08 12:02:00,
2013-01-08 05:12:00,34.0,29.0,29.83,West,261,4.0,5.0,81,-99.99,,,-99.99,0.000000,,2013-01-08 12:12:00,
2013-01-08 05:22:00,34.0,29.0,29.83,West,261,4.0,5.0,81,-99.99,,,-99.99,0.000000,,2013-01-08 12:22:00,
2013-01-08 05:32:00,34.0,29.0,29.83,West,274,4.0,7.0,82,-99.99,,,-99.99,0.000000,,2013-01-08 12:32:00,
2013-01-08 05:42:00,35.0,29.0,29.83,ENE,62,3.0,6.0,78,-99.99,,,-99.99,0.000000,,2013-01-08 12:42:00,
2013-01-08 05:53:00,33.0,28.0,29.84,SW,232,4.0,5.0,82,-99.99,,,-99.99,0.000000,,2013-01-08 12:53:00,
2013-01-08 06:03:00,33.0,28.0,29.84,SW,232,4.0,5.0,82,-99.99,,,-99.99,0.000000,,2013-01-08 13:03:00,
2013-01-08 06:12:00,34.0,29.0,29.85,WSW,257,5.0,7.0,81,-99.99,,,-99.99,0.000000,,2013-01-08 13:12:00,
2013-01-08 06:22:00,34.0,29.0,29.85,WSW,257,5.0,7.0,81,-99.99,,,-99.99,0.000000,,2013-01-08 13:22:00,
2013-01-08 06:33:00,38.0,27.0,29.85,SW,234,4.0,8.0,63,-99.99,,,-99.99,0.000000,,2013-01-08 13:33:00,
2013-01-08 06:42:00,42.0,24.0,29.86,West,271,2.0,5.0,48,-99.99,,,-99.99,0.000000,,2013-01-08 13:42:00,
2013-01-08 06:53:00,42.0,24.0,29.86,West,271,2.0,5.0,48,-99.99,,,-99.99,0.000000,,2013-01-08 13:53:00,
2013-01-08 07:02:00,43.0,24.0,29.87,South,173,4.0,9.0,46,-99.99,,,-99.99,0.000000,,2013-01-08 14:02:00,
2013-01-08 07:12:00,42.0,23.0,29.87,SW,227,3.0,6.0,46,-99.99,,,-99.99,0.000000,,2013-01-08 14:12:00,
2013-01-08 07:23:00,42.0,23.0,29.87,SW,227,3.0,6.0,46,-99.99,,,-99.99,0.000000,,2013-01-08 14:23:00,
2013-01-08 07:33:00,42.0,23.0,29.88,South,182,3.0,8.0,47,-99.99,,,-99.99,0.000000,,2013-01-08 14:33:00,
2013-01-08 07:43:00,39.0,25.0,29.89,SE,129,5.0,9.0,56,-99.99,,,-99.99,2.090000,,2013-01-08 14:43:00,
2013-01-08 07:53:00,37.0,25.0,29.91,ESE,103,6.0,9.0,61,-99.99,,,-99.99,9.760000,,2013-01-08 14:53:00,
2013-01-08 08:02:00,37.0,25.0,29.91,ESE,103,6.0,9.0,61,-99.99,,,-99.99,9.760000,,2013-01-08 15:02:00,
2013-01-08 08:12:00,41.0,23.0,29.91,ENE,59,3.0,6.0,48,-99.99,,,-99.99,19.530001,,2013-01-08 15:12:00,
2013-01-08 08:22:00,41.0,23.0,29.91,ENE,59,3.0,6.0,48,-99.99,,,-99.99,19.530001,,2013-01-08 15:22:00,
2013-01-08 08:33:00,40.0,25.0,29.91,NNW,330,5.0,10.0,53,-99.99,,,-99.99,30.680000,,2013-01-08 15:33:00,
2013-01-08 08:43:00,37.0,27.0,29.91,NW,304,8.0,11.0,64,-99.99,,,-99.99,40.450001,,2013-01-08 15:43:00,
2013-01-08 08:53:00,37.0,27.0,29.91,NW,304,8.0,11.0,64,-99.99,,,-99.99,40.450001,,2013-01-08 15:53:00,
2013-01-08 09:03:00,38.0,26.0,29.91,WNW,293,4.0,6.0,63,-99.99,,,-99.99,78.099998,,2013-01-08 16:03:00,
2013-01-08 09:12:00,39.0,27.0,29.92,SW,226,2.0,4.0,62,-99.99,,,-99.99,192.460007,,2013-01-08 16:12:00,
2013-01-08 09:22:00,39.0,27.0,29.92,SW,226,2.0,4.0,62,-99.99,,,-99.99,192.460007,,2013-01-08 16:22:00,
2013-01-08 09:33:00,43.0,28.0,29.93,WNW,291,1.0,3.0,54,-99.99,,,-99.99,301.250000,,2013-01-08 16:33:00,
2013-01-08 09:42:00,45.0,26.0,29.93,NNW,336,2.0,3.0,46,-99.99,,,-99.99,338.899994,,2013-01-08 16:42:00,
2013-01-08 09:53:00,45.0,26.0,29.93,NNW,336,2.0,3.0,46,-99.99,,,-99.99,338.899994,,2013-01-08 16:53:00,
2013-01-08 10:03:00,46.0,24.0,29.94,NW,317,3.0,4.0,42,-99.99,,,-99.99,390.510010,,2013-01-08 17:03:00,
2013-01-08 10:13:00,48.0,24.0,29.94,ESE,112,3.0,8.0,38,-99.99,,,-99.99,419.790009,,2013-01-08 17:13:00,
2013-01-08 10:23:00,48.0,24.0,29.94,ESE,112,3.0,8.0,38,-99.99,,,-99.99,419.790009,,2013-01-08 17:23:00,
2013-01-08 10:33:00,47.0,26.0,29.94,ESE,120,6.0,9.0,43,-99.99,,,-99.99,432.350006,,2013-01-08 17:33:00,
2013-01-08 10:43:00,46.0,26.0,29.94,ESE,110,8.0,10.0,45,-99.99,,,-99.99,451.170013,,2013-01-08 17:43:00,
2013-01-08 10:54:00,46.0,26.0,29.94,ESE,110,8.0,10.0,45,-99.99,,,-99.99,451.170013,,2013-01-08 17:54:00,
2013-01-08 11:03:00,46.0,26.0,29.94,East,97,5.0,9.0,45,-99.99,,,-99.99,519.510010,,2013-01-08 18:03:00,
2013-01-08 11:13:00,47.0,26.0,29.93,NE,55,4.0,8.0,43,-99.99,,,-99.99,544.619995,,2013-01-08 18:13:00,
2013-01-08 11:23:00,47.0,26.0,29.93,NE,55,4.0,8.0,43,-99.99,,,-99.99,544.619995,,2013-01-08 18:23:00,
2013-01-08 11:33:00,48.0,26.0,29.94,NNW,332,2.0,6.0,42,-99.99,,,-99.99,562.049988,,2013-01-08 18:33:00,
2013-01-08 11:43:00,48.0,26.0,29.93,West,273,3.0,5.0,41,-99.99,,,-99.99,578.789978,,2013-01-08 18:43:00,
2013-01-08 11:53:00,48.0,26.0,29.93,West,273,3.0,5.0,41,-99.99,,,-99.99,578.789978,,2013-01-08 18:53:00,
2013-01-08 12:03:00,50.0,26.0,29.93,WNW,292,6.0,11.0,39,-99.99,,,-99.99,593.429993,,2013-01-08 19:03:00,
2013-01-08 12:12:00,51.0,27.0,29.92,NW,313,6.0,9.0,38,-99.99,,,-99.99,606.679993,,2013-01-08 19:12:00,
2013-01-08 12:22:00,51.0,27.0,29.92,NW,313,6.0,9.0,38,-99.99,,,-99.99,606.679993,,2013-01-08 19:22:00,
2013-01-08 12:32:00,53.0,23.0,29.92,NW,317,12.0,19.0,30,-99.99,,,-99.99,614.349976,,2013-01-08 19:32:00,
2013-01-08 12:42:00,54.0,22.0,29.92,NW,313,13.0,19.0,29,-99.99,,,-99.99,616.440002,,2013-01-08 19:42:00,
2013-01-08 12:53:00,54.0,22.0,29.92,NW,313,13.0,19.0,29,-99.99,,,-99.99,616.440002,,2013-01-08 19:53:00,
2013-01-08 13:03:00,54.0,22.0,29.91,NW,314,9.0,14.0,28,-99.99,,,-99.99,600.400024,,2013-01-08 20:03:00,
2013-01-08 13:12:00,54.0,24.0,29.91,NE,47,7.0,12.0,30,-99.99,,,-99.99,609.469971,,2013-01-08 20:12:00,
2013-01-08 13:23:00,54.0,24.0,29.91,NE,47,7.0,12.0,30,-99.99,,,-99.99,609.469971,,2013-01-08 20:23:00,
2013-01-08 13:33:00,53.0,23.0,29.90,ENE,78,7.0,11.0,29,-99.99,,,-99.99,600.400024,,2013-01-08 20:33:00,
2013-01-08 13:43:00,54.0,22.0,29.90,ENE,72,7.0,13.0,28,-99.99,,,-99.99,587.849976,,2013-01-08 20:43:00,
2013-01-08 13:53:00,54.0,22.0,29.90,ENE,72,7.0,13.0,28,-99.99,,,-99.99,587.849976,,2013-01-08 20:53:00,
2013-01-08 14:03:00,54.0,21.0,29.90,ENE,76,6.0,15.0,27,-99.99,,,-99.99,571.119995,,2013-01-08 21:03:00,
2013-01-08 14:12:00,54.0,20.0,29.89,ENE,65,5.0,9.0,26,-99.99,,,-99.99,549.500000,,2013-01-08 21:12:00,
2013-01-08 14:23:00,54.0,20.0,29.89,ENE,65,5.0,9.0,26,-99.99,,,-99.99,549.500000,,2013-01-08 21:23:00,
2013-01-08 14:33:00,55.0,20.0,29.89,ENE,68,3.0,8.0,25,-99.99,,,-99.99,523.000000,,2013-01-08 21:33:00,
2013-01-08 14:43:00,55.0,20.0,29.89,East,92,4.0,8.0,24,-99.99,,,-99.99,494.410004,,2013-01-08 21:43:00,
2013-01-08 14:53:00,55.0,20.0,29.89,East,92,4.0,8.0,24,-99.99,,,-99.99,494.410004,,2013-01-08 21:53:00,
2013-01-08 15:03:00,56.0,20.0,29.89,NE,34,2.0,5.0,24,-99.99,,,-99.99,463.029999,,2013-01-08 22:03:00,
2013-01-08 15:12:00,56.0,20.0,29.89,ENE,77,1.0,5.0,23,-99.99,,,-99.99,428.859985,,2013-01-08 22:12:00,
2013-01-08 15:23:00,56.0,20.0,29.89,ENE,77,1.0,5.0,23,-99.99,,,-99.99,428.859985,,2013-01-08 22:23:00,
2013-01-08 15:33:00,56.0,20.0,29.90,ESE,110,3.0,6.0,24,-99.99,,,-99.99,393.299988,,2013-01-08 22:33:00,
2013-01-08 15:43:00,56.0,20.0,29.90,ESE,110,3.0,6.0,24,-99.99,,,-99.99,393.299988,,2013-01-08 22:43:00,
2013-01-08 15:53:00,57.0,21.0,29.91,ENE,64,2.0,4.0,24,-99.99,,,-99.99,308.920013,,2013-01-08 22:53:00,
2013-01-08 16:02:00,57.0,21.0,29.91,ENE,64,2.0,4.0,24,-99.99,,,-99.99,308.920013,,2013-01-08 23:02:00,
2013-01-08 16:12:00,58.0,21.0,29.91,SSE,148,2.0,7.0,24,-99.99,,,-99.99,264.290009,,2013-01-08 23:12:00,
2013-01-08 16:22:00,58.0,21.0,29.91,SSE,148,2.0,7.0,24,-99.99,,,-99.99,264.290009,,2013-01-08 23:22:00,
2013-01-08 16:32:00,57.0,22.0,29.91,South,172,2.0,5.0,24,-99.99,,,-99.99,221.050003,,2013-01-08 23:32:00,
2013-01-08 16:43:00,58.0,22.0,29.92,South,181,2.0,5.0,24,-99.99,,,-99.99,131.100006,,2013-01-08 23:43:00,
2013-01-08 16:53:00,58.0,22.0,29.92,South,181,2.0,5.0,24,-99.99,,,-99.99,131.100006,,2013-01-08 23:53:00,
2013-01-08 17:02:00,58.0,22.0,29.92,South,181,2.0,5.0,24,-99.99,,,-99.99,131.100006,,2013-01-09 00:02:00,
2013-01-08 17:12:00,48.0,26.0,29.93,SW,232,3.0,4.0,42,-99.99,,,-99.99,18.129999,,2013-01-09 00:12:00,
2013-01-08 17:22:00,48.0,26.0,29.93,SW,232,3.0,4.0,42,-99.99,,,-99.99,18.129999,,2013-01-09 00:22:00,
2013-01-08 17:33:00,47.0,26.0,29.93,WSW,237,3.0,4.0,43,-99.99,,,-99.99,13.950000,,2013-01-09 00:33:00,
2013-01-08 17:42:00,45.0,26.0,29.94,West,262,4.0,5.0,47,-99.99,,,-99.99,9.070000,,2013-01-09 00:42:00,
2013-01-08 17:53:00,45.0,26.0,29.94,West,262,4.0,5.0,47,-99.99,,,-99.99,9.070000,,2013-01-09 00:53:00,
2013-01-08 18:02:00,45.0,26.0,29.94,WSW,256,3.0,5.0,45,-99.99,,,-99.99,3.490000,,2013-01-09 01:02:00,
2013-01-08 18:12:00,43.0,25.0,29.94,WSW,253,5.0,5.0,48,-99.99,,,-99.99,0.000000,,2013-01-09 01:12:00,
2013-01-08 18:22:00,43.0,25.0,29.94,WSW,253,5.0,5.0,48,-99.99,,,-99.99,0.000000,,2013-01-09 01:22:00,
2013-01-08 18:32:00,43.0,23.0,29.95,WSW,245,5.0,6.0,45,-99.99,,,-99.99,0.000000,,2013-01-09 01:32:00,
2013-01-08 18:42:00,43.0,22.0,29.95,WSW,258,5.0,7.0,42,-99.99,,,-99.99,0.000000,,2013-01-09 01:42:00,
2013-01-08 18:52:00,43.0,22.0,29.95,WSW,258,5.0,7.0,42,-99.99,,,-99.99,0.000000,,2013-01-09 01:52:00,
2013-01-08 19:02:00,41.0,24.0,29.96,West,264,6.0,8.0,49,-99.99,,,-99.99,0.000000,,2013-01-09 02:02:00,
2013-01-08 19:12:00,40.0,24.0,29.97,West,271,7.0,11.0,51,-99.99,,,-99.99,0.000000,,2013-01-09 02:12:00,
2013-01-08 19:22:00,40.0,24.0,29.97,West,271,7.0,11.0,51,-99.99,,,-99.99,0.000000,,2013-01-09 02:22:00,
2013-01-08 19:33:00,45.0,21.0,29.97,West,280,8.0,11.0,37,-99.99,,,-99.99,0.000000,,2013-01-09 02:33:00,
2013-01-08 19:42:00,45.0,21.0,29.97,West,280,8.0,11.0,37,-99.99,,,-99.99,0.000000,,2013-01-09 02:42:00,
2013-01-08 19:53:00,52.0,13.0,29.97,WNW,282,6.0,13.0,20,-99.99,,,-99.99,0.000000,,2013-01-09 02:53:00,
2013-01-08 20:03:00,52.0,13.0,29.97,WNW,282,6.0,13.0,20,-99.99,,,-99.99,0.000000,,2013-01-09 03:03:00,
2013-01-08 20:12:00,52.0,11.0,29.98,West,278,6.0,14.0,18,-99.99,,,-99.99,0.000000,,2013-01-09 03:12:00,
2013-01-08 20:22:00,52.0,11.0,29.98,West,278,6.0,14.0,18,-99.99,,,-99.99,0.000000,,2013-01-09 03:22:00,
2013-01-08 20:33:00,52.0,11.0,29.98,WNW,286,10.0,14.0,19,-99.99,,,-99.99,0.000000,,2013-01-09 03:33:00,
2013-01-08 20:43:00,51.0,13.0,29.99,WNW,302,8.0,15.0,21,-99.99,,,-99.99,0.000000,,2013-01-09 03:43:00,
2013-01-08 20:53:00,51.0,13.0,29.99,WNW,302,8.0,15.0,21,-99.99,,,-99.99,0.000000,,2013-01-09 03:53:00,
2013-01-08 21:02:00,51.0,14.0,29.99,WNW,291,7.0,12.0,22,-99.99,,,-99.99,0.000000,,2013-01-09 04:02:00,
2013-01-08 21:12:00,49.0,15.0,29.98,WNW,296,9.0,14.0,25,-99.99,,,-99.99,0.000000,,2013-01-09 04:12:00,
2013-01-08 21:22:00,49.0,15.0,29.98,WNW,296,9.0,14.0,25,-99.99,,,-99.99,0.000000,,2013-01-09 04:22:00,
2013-01-08 21:32:00,49.0,14.0,29.98,WNW,291,9.0,14.0,24,-99.99,,,-99.99,0.000000,,2013-01-09 04:32:00,
2013-01-08 21:42:00,49.0,15.0,29.99,WNW,296,9.0,12.0,25,-99.99,,,-99.99,0.000000,,2013-01-09 04:42:00,
2013-01-08 21:52:00,49.0,15.0,29.99,WNW,296,9.0,12.0,25,-99.99,,,-99.99,0.000000,,2013-01-09 04:52:00,
2013-01-08 22:03:00,50.0,13.0,29.99,WNW,285,9.0,16.0,22,-99.99,,,-99.99,0.000000,,2013-01-09 05:03:00,
2013-01-08 22:12:00,49.0,13.0,29.99,WNW,294,11.0,18.0,23,-99.99,,,-99.99,0.000000,,2013-01-09 05:12:00,
2013-01-08 22:22:00,49.0,13.0,29.99,WNW,294,11.0,18.0,23,-99.99,,,-99.99,0.000000,,2013-01-09 05:22:00,
2013-01-08 22:33:00,49.0,13.0,29.99,WNW,296,9.0,14.0,23,-99.99,,,-99.99,0.000000,,2013-01-09 05:33:00,
2013-01-08 22:42:00,49.0,12.0,29.99,WNW,303,10.0,14.0,22,-99.99,,,-99.99,0.000000,,2013-01-09 05:42:00,
2013-01-08 22:53:00,49.0,12.0,29.99,WNW,303,10.0,14.0,22,-99.99,,,-99.99,0.000000,,2013-01-09 05:53:00,
2013-01-08 23:02:00,47.0,13.0,30.00,WNW,295,10.0,14.0,25,-99.99,,,-99.99,0.000000,,2013-01-09 06:02:00,
2013-01-08 23:12:00,49.0,12.0,30.01,WNW,284,10.0,13.0,21,-99.99,,,-99.99,0.000000,,2013-01-09 06:12:00,
2013-01-08 23:22:00,49.0,12.0,30.01,WNW,284,10.0,13.0,21,-99.99,,,-99.99,0.000000,,2013-01-09 06:22:00,
2013-01-08 23:32:00,49.0,12.0,30.01,WNW,282,10.0,15.0,21,-99.99,,,-99.99,0.000000,,2013-01-09 06:32:00,
2013-01-08 23:42:00,50.0,11.0,30.01,West,279,13.0,18.0,20,-99.99,,,-99.99,0.000000,,2013-01-09 06:42:00,
2013-01-08 23:52:00,50.0,11.0,30.01,WNW,283,13.0,18.0,20,-99.99,,,-99.99,0.000000,,2013-01-09 06:52:00,